Time;durP1;ratioP1;P1;durP2;ratioP2;P2;SDS_P1;SDS_P2;PMS_P1;PMS_P2;Temp;Humidity;BMP_temperature;BMP_pressure;BME280_temperature;BME280_humidity;BME280_pressure;Samples;Min_cycle;Max_cycle;Signal;HPM_P1;HPM_P2
2023/11/11 00:00:44;;;;;;;2.97;0.90;;;11.40;99.90;;;;;;5070740;28;20065;-40
2023/11/11 00:03:10;;;;;;;1.70;0.93;;;11.40;99.90;;;;;;5074273;28;20028;-40
2023/11/11 00:05:36;;;;;;;1.73;0.70;;;11.40;99.90;;;;;;5074222;28;20024;-40
2023/11/11 00:08:02;;;;;;;2.63;0.95;;;11.40;99.90;;;;;;5074213;28;20025;-40
2023/11/11 00:10:28;;;;;;;2.75;0.90;;;11.40;99.90;;;;;;5074040;28;20024;-40
2023/11/11 00:12:54;;;;;;;2.42;0.80;;;11.40;99.90;;;;;;5074010;28;20102;-40
2023/11/11 00:15:20;;;;;;;1.83;0.85;;;11.40;99.90;;;;;;5074421;28;20060;-40
2023/11/11 00:17:45;;;;;;;1.70;0.90;;;11.40;99.90;;;;;;5073982;28;20024;-41
2023/11/11 00:20:12;;;;;;;3.75;0.85;;;11.40;99.90;;;;;;5073912;28;20371;-40
2023/11/11 00:22:45;;;;;;;2.13;0.77;;;11.40;99.90;;;;;;5073884;28;20047;-40
2023/11/11 00:25:17;;;;;;;1.42;0.60;;;11.50;99.90;;;;;;5073848;28;20024;-40
2023/11/11 00:27:44;;;;;;;1.98;0.75;;;11.40;99.90;;;;;;5073769;28;20024;-40
2023/11/11 00:30:13;;;;;;;1.73;0.70;;;11.40;99.90;;;;;;5073659;28;20027;-40
2023/11/11 00:32:39;;;;;;;1.52;0.60;;;11.40;99.90;;;;;;5073757;28;20104;-40
2023/11/11 00:35:08;;;;;;;1.48;0.75;;;11.40;99.90;;;;;;5073800;28;20119;-39
2023/11/11 00:37:37;;;;;;;3.30;0.75;;;11.40;99.90;;;;;;5073598;28;20024;-40
2023/11/11 00:40:03;;;;;;;2.00;0.77;;;11.40;99.90;;;;;;5073872;28;20029;-40
2023/11/11 00:42:28;;;;;;;3.25;0.77;;;11.40;99.90;;;;;;5073607;28;20029;-40
2023/11/11 00:44:54;;;;;;;2.78;0.93;;;11.40;99.90;;;;;;5073525;28;20342;-41
2023/11/11 00:47:19;;;;;;;1.85;0.70;;;11.40;99.90;;;;;;5073475;28;20077;-40
2023/11/11 00:49:49;;;;;;;1.80;0.70;;;11.40;99.90;;;;;;5073328;28;20052;-40
2023/11/11 00:52:15;;;;;;;2.30;0.90;;;11.40;99.90;;;;;;5073417;28;20023;-40
2023/11/11 00:54:41;;;;;;;2.75;0.90;;;11.40;99.90;;;;;;5073217;28;20508;-40
2023/11/11 00:57:07;;;;;;;1.05;0.68;;;11.40;99.90;;;;;;5073180;28;20020;-40
2023/11/11 00:59:32;;;;;;;1.75;0.85;;;11.40;99.90;;;;;;5073096;28;20082;-40
2023/11/11 01:02:02;;;;;;;1.63;0.70;;;11.40;99.90;;;;;;5073219;28;20032;-39
2023/11/11 01:04:28;;;;;;;1.10;0.50;;;11.40;99.90;;;;;;5073125;28;20031;-40
2023/11/11 01:06:55;;;;;;;1.02;0.60;;;11.40;99.90;;;;;;5073001;28;20020;-40
2023/11/11 01:09:21;;;;;;;1.10;0.60;;;11.40;99.90;;;;;;5071963;28;20024;-40
2023/11/11 01:11:47;;;;;;;1.48;0.60;;;11.40;99.90;;;;;;5072997;28;20081;-40
2023/11/11 01:14:13;;;;;;;1.23;0.55;;;11.40;99.90;;;;;;5072363;28;20279;-40
2023/11/11 01:16:39;;;;;;;2.42;0.65;;;11.50;99.90;;;;;;5072818;28;20452;-40
2023/11/11 01:19:05;;;;;;;2.40;0.60;;;11.50;99.90;;;;;;5072797;28;20033;-39
2023/11/11 01:21:30;;;;;;;1.08;0.47;;;11.40;99.90;;;;;;5072791;28;20035;-40
2023/11/11 01:23:56;;;;;;;1.05;0.60;;;11.40;99.90;;;;;;5072927;28;20028;-40
2023/11/11 01:26:25;;;;;;;0.98;0.38;;;11.40;99.90;;;;;;5072640;28;20100;-40
2023/11/11 01:28:51;;;;;;;1.25;0.60;;;11.40;99.90;;;;;;5072552;28;20072;-40
2023/11/11 01:31:18;;;;;;;1.38;0.52;;;11.40;99.90;;;;;;5072580;28;20363;-40
2023/11/11 01:33:44;;;;;;;0.88;0.50;;;11.40;99.90;;;;;;5072616;28;20021;-42
2023/11/11 01:36:10;;;;;;;0.90;0.55;;;11.40;99.90;;;;;;5072875;28;20021;-41
2023/11/11 01:38:35;;;;;;;1.65;0.50;;;11.40;99.90;;;;;;5072339;28;20033;-40
2023/11/11 01:41:04;;;;;;;0.95;0.47;;;11.40;99.90;;;;;;5072446;28;20025;-40
2023/11/11 01:43:30;;;;;;;1.25;0.45;;;11.40;99.90;;;;;;5072462;28;20774;-40
2023/11/11 01:46:01;;;;;;;0.63;0.45;;;11.40;99.90;;;;;;5072242;28;20025;-43
2023/11/11 01:48:28;;;;;;;0.60;0.47;;;11.40;99.90;;;;;;5072245;28;20107;-39
2023/11/11 01:50:55;;;;;;;0.70;0.50;;;11.40;99.90;;;;;;5072124;28;20059;-41
2023/11/11 01:53:21;;;;;;;0.52;0.22;;;11.40;99.90;;;;;;5072188;28;20025;-40
2023/11/11 01:55:48;;;;;;;1.95;0.60;;;11.40;99.90;;;;;;5072069;28;20016;-41
2023/11/11 01:58:17;;;;;;;1.65;0.40;;;11.40;99.90;;;;;;5071815;28;20308;-40
2023/11/11 02:00:43;;;;;;;1.15;0.50;;;11.40;99.90;;;;;;5072980;28;20036;-39
2023/11/11 02:03:11;;;;;;;0.90;0.35;;;11.40;99.90;;;;;;5072769;28;20028;-39
2023/11/11 02:05:36;;;;;;;1.27;0.40;;;11.30;99.90;;;;;;5071981;28;20091;-38
2023/11/11 02:08:06;;;;;;;1.13;0.40;;;11.40;99.90;;;;;;5072103;28;20028;-38
2023/11/11 02:10:35;;;;;;;1.27;0.47;;;11.40;99.90;;;;;;5071901;28;20078;-38
2023/11/11 02:13:02;;;;;;;0.73;0.43;;;11.40;99.90;;;;;;5071994;28;20040;-38
2023/11/11 02:15:28;;;;;;;0.50;0.30;;;11.40;99.90;;;;;;5071872;28;20387;-39
2023/11/11 02:17:54;;;;;;;0.90;0.40;;;11.40;99.90;;;;;;5071918;28;20024;-38
2023/11/11 02:20:20;;;;;;;5.25;0.82;;;11.40;99.90;;;;;;5072133;28;20024;-38
2023/11/11 02:22:45;;;;;;;0.57;0.30;;;11.30;99.90;;;;;;5071779;28;20029;-38
2023/11/11 02:25:11;;;;;;;1.55;0.40;;;11.40;99.90;;;;;;5071521;28;20146;-39
2023/11/11 02:27:37;;;;;;;1.75;0.50;;;11.30;99.90;;;;;;5071716;28;20028;-38
2023/11/11 02:30:03;;;;;;;0.93;0.30;;;11.30;99.90;;;;;;5071644;28;20064;-38
2023/11/11 02:32:32;;;;;;;1.38;0.40;;;11.40;99.90;;;;;;5071658;28;20020;-39
2023/11/11 02:34:58;;;;;;;0.52;0.30;;;11.30;99.90;;;;;;5070359;28;20595;-39
2023/11/11 02:37:24;;;;;;;0.40;0.30;;;11.30;99.90;;;;;;5071693;28;20104;-39
2023/11/11 02:39:49;;;;;;;0.40;0.30;;;11.30;99.90;;;;;;5071743;28;20035;-40
2023/11/11 02:42:15;;;;;;;0.65;0.30;;;11.30;99.90;;;;;;5072471;28;20481;-38
2023/11/11 02:44:41;;;;;;;0.60;0.28;;;11.40;99.90;;;;;;5071884;28;20024;-38
2023/11/11 02:47:06;;;;;;;2.15;0.30;;;11.30;99.90;;;;;;5071408;28;20027;-39
2023/11/11 02:49:32;;;;;;;0.40;0.30;;;11.30;99.90;;;;;;5071673;28;20101;-39
2023/11/11 02:51:58;;;;;;;1.00;0.35;;;11.30;99.90;;;;;;5071700;28;20020;-39
2023/11/11 02:54:24;;;;;;;2.53;0.40;;;11.30;99.90;;;;;;5071890;28;20050;-38
2023/11/11 02:56:49;;;;;;;0.70;0.40;;;11.30;99.90;;;;;;5071631;28;20024;-39
2023/11/11 02:59:15;;;;;;;0.77;0.20;;;11.30;99.90;;;;;;5071461;28;20028;-38
2023/11/11 03:01:41;;;;;;;0.90;0.30;;;11.30;99.90;;;;;;5071516;28;20024;-39
2023/11/11 03:04:07;;;;;;;1.35;0.40;;;11.30;99.90;;;;;;5071703;28;20385;-39
2023/11/11 03:06:33;;;;;;;0.60;0.30;;;11.30;99.90;;;;;;5071482;28;20493;-38
2023/11/11 03:08:59;;;;;;;0.55;0.20;;;11.30;99.90;;;;;;5071275;28;20032;-38
2023/11/11 03:11:25;;;;;;;0.60;0.30;;;11.30;99.90;;;;;;5071356;28;20032;-38
2023/11/11 03:13:51;;;;;;;1.02;0.30;;;11.30;99.90;;;;;;5071568;28;20398;-39
2023/11/11 03:16:17;;;;;;;0.90;0.30;;;11.30;99.90;;;;;;5071390;28;20017;-38
2023/11/11 03:18:45;;;;;;;0.40;0.30;;;11.30;99.90;;;;;;5071187;28;20024;-39
2023/11/11 03:21:19;;;;;;;0.50;0.22;;;11.30;99.90;;;;;;5071248;28;20032;-38
2023/11/11 03:23:45;;;;;;;0.93;0.38;;;11.30;99.90;;;;;;5071520;28;20029;-39
2023/11/11 03:26:10;;;;;;;0.82;0.32;;;11.30;99.90;;;;;;5071378;28;20028;-39
2023/11/11 03:28:36;;;;;;;0.30;0.25;;;11.30;99.90;;;;;;5071210;28;20486;-38
2023/11/11 03:31:02;;;;;;;0.63;0.30;;;11.30;99.90;;;;;;5071222;28;20032;-38
2023/11/11 03:33:28;;;;;;;0.68;0.40;;;11.30;99.90;;;;;;5071258;28;20017;-39
2023/11/11 03:35:53;;;;;;;1.08;0.50;;;11.30;99.90;;;;;;5071502;28;20028;-38
2023/11/11 03:38:19;;;;;;;0.55;0.20;;;11.30;99.90;;;;;;5074917;28;20032;-38
2023/11/11 03:40:45;;;;;;;0.40;0.30;;;11.30;99.90;;;;;;5075125;28;20094;-38
2023/11/11 03:43:11;;;;;;;1.20;0.40;;;11.30;99.90;;;;;;5075245;28;20028;-38
2023/11/11 03:45:36;;;;;;;0.43;0.17;;;11.30;99.90;;;;;;5074792;28;20451;-39
2023/11/11 03:48:02;;;;;;;0.70;0.30;;;11.30;99.90;;;;;;5074989;28;20021;-39
2023/11/11 03:50:28;;;;;;;0.40;0.20;;;11.30;99.90;;;;;;5074608;28;20017;-38
2023/11/11 03:52:53;;;;;;;0.38;0.20;;;11.30;99.90;;;;;;5074774;28;20023;-40
2023/11/11 03:55:19;;;;;;;0.45;0.30;;;11.30;99.90;;;;;;5074469;28;20473;-38
2023/11/11 03:57:44;;;;;;;2.55;0.38;;;11.30;99.90;;;;;;5074511;28;20034;-38
2023/11/11 04:00:16;;;;;;;0.60;0.30;;;11.30;99.90;;;;;;5074267;28;20699;-38
2023/11/11 04:02:42;;;;;;;0.25;0.20;;;11.30;99.90;;;;;;5074524;28;20024;-38
2023/11/11 04:05:11;;;;;;;0.47;0.30;;;11.20;99.90;;;;;;5074398;28;20085;-38
2023/11/11 04:07:37;;;;;;;0.55;0.30;;;11.30;99.90;;;;;;5074421;28;20108;-38
2023/11/11 04:10:03;;;;;;;0.30;0.25;;;11.20;99.90;;;;;;5074162;28;20032;-39
2023/11/11 04:12:29;;;;;;;0.75;0.35;;;11.30;99.90;;;;;;5074310;28;20027;-39
2023/11/11 04:14:55;;;;;;;1.58;0.30;;;11.20;99.90;;;;;;5074325;28;20020;-39
2023/11/11 04:17:20;;;;;;;0.45;0.22;;;11.20;99.90;;;;;;5074118;28;20031;-39
2023/11/11 04:19:46;;;;;;;0.20;0.13;;;11.20;99.90;;;;;;5074195;28;20047;-39
2023/11/11 04:22:12;;;;;;;0.85;0.20;;;11.20;99.90;;;;;;5074170;28;20017;-38
2023/11/11 04:24:38;;;;;;;0.50;0.30;;;11.30;99.90;;;;;;5074027;28;20028;-38
2023/11/11 04:27:04;;;;;;;0.55;0.30;;;11.20;99.90;;;;;;5073939;28;20021;-38
2023/11/11 04:29:30;;;;;;;0.35;0.20;;;11.20;99.90;;;;;;5074325;28;20444;-39
2023/11/11 04:31:56;;;;;;;0.28;0.17;;;11.20;99.90;;;;;;5074028;28;20025;-38
2023/11/11 04:34:22;;;;;;;0.90;0.30;;;11.20;99.90;;;;;;5073955;28;20470;-38
2023/11/11 04:36:47;;;;;;;0.63;0.10;;;11.20;99.90;;;;;;5073718;28;20040;-38
2023/11/11 04:39:14;;;;;;;0.75;0.20;;;11.20;99.90;;;;;;5073904;28;20542;-39
2023/11/11 04:41:44;;;;;;;0.25;0.20;;;11.20;99.90;;;;;;5073855;28;20094;-39
2023/11/11 04:44:10;;;;;;;0.70;0.30;;;11.20;99.90;;;;;;5073646;28;20031;-38
2023/11/11 04:46:37;;;;;;;0.60;0.10;;;11.20;99.90;;;;;;5073679;28;20036;-39
2023/11/11 04:49:02;;;;;;;0.43;0.22;;;11.20;99.90;;;;;;5072702;28;20504;-39
2023/11/11 04:51:28;;;;;;;0.35;0.20;;;11.20;99.90;;;;;;5073521;28;20025;-38
2023/11/11 04:53:54;;;;;;;0.57;0.20;;;11.20;99.90;;;;;;5073559;28;20107;-38
2023/11/11 04:56:20;;;;;;;0.47;0.20;;;11.20;99.90;;;;;;5073347;28;20025;-39
2023/11/11 04:58:47;;;;;;;0.20;0.20;;;11.20;99.90;;;;;;5073444;28;20112;-40
2023/11/11 05:01:12;;;;;;;0.20;0.10;;;11.20;99.90;;;;;;5073594;28;20481;-38
2023/11/11 05:03:40;;;;;;;0.47;0.30;;;11.20;99.90;;;;;;5073497;28;20508;-39
2023/11/11 05:06:06;;;;;;;0.32;0.30;;;11.20;99.90;;;;;;5073184;28;20032;-38
2023/11/11 05:08:31;;;;;;;1.77;0.30;;;11.20;99.90;;;;;;5073159;28;20066;-39
2023/11/11 05:10:57;;;;;;;0.40;0.20;;;11.20;99.90;;;;;;5073114;28;20137;-38
2023/11/11 05:13:23;;;;;;;0.25;0.20;;;11.20;99.90;;;;;;5073181;28;20025;-38
2023/11/11 05:15:59;;;;;;;0.45;0.30;;;11.20;99.90;;;;;;5073139;28;20298;-38
2023/11/11 05:18:26;;;;;;;2.20;0.20;;;11.20;99.90;;;;;;5073244;28;20485;-38
2023/11/11 05:20:51;;;;;;;2.67;0.43;;;11.20;99.90;;;;;;5073192;28;20029;-38
2023/11/11 05:23:17;;;;;;;1.75;0.30;;;11.20;99.90;;;;;;5072908;28;20034;-38
2023/11/11 05:25:43;;;;;;;0.60;0.40;;;11.20;99.90;;;;;;5072688;28;20033;-39
2023/11/11 05:28:08;;;;;;;0.60;0.30;;;11.20;99.90;;;;;;5072772;28;20052;-39
2023/11/11 05:30:34;;;;;;;0.50;0.20;;;11.20;99.90;;;;;;5072815;28;20214;-38
2023/11/11 05:33:00;;;;;;;0.30;0.20;;;11.20;99.90;;;;;;5071447;28;20044;-39
2023/11/11 05:35:26;;;;;;;2.30;0.38;;;11.20;99.90;;;;;;5071285;28;20029;-38
2023/11/11 05:37:53;;;;;;;0.68;0.30;;;11.20;99.90;;;;;;5071144;28;20031;-39
2023/11/11 05:40:19;;;;;;;0.47;0.28;;;11.20;99.90;;;;;;5072705;28;20545;-38
2023/11/11 05:42:49;;;;;;;1.27;0.20;;;11.20;99.90;;;;;;5072548;28;20060;-39
2023/11/11 05:45:18;;;;;;;0.60;0.25;;;11.20;99.90;;;;;;5072563;28;20024;-40
2023/11/11 05:47:44;;;;;;;0.63;0.25;;;11.20;99.90;;;;;;5072486;28;20327;-38
2023/11/11 05:50:11;;;;;;;0.50;0.25;;;11.20;99.90;;;;;;5071131;28;20231;-38
2023/11/11 05:52:38;;;;;;;2.70;0.50;;;11.20;99.90;;;;;;5072192;28;20016;-40
2023/11/11 05:55:05;;;;;;;0.68;0.20;;;11.20;99.90;;;;;;5072179;28;20017;-38
2023/11/11 05:57:31;;;;;;;0.65;0.30;;;11.10;99.90;;;;;;5072289;28;20021;-39
2023/11/11 05:59:57;;;;;;;0.80;0.40;;;11.10;99.90;;;;;;5071691;28;20122;-38
2023/11/11 06:02:22;;;;;;;0.45;0.30;;;11.20;99.90;;;;;;5072107;28;20103;-39
2023/11/11 06:04:48;;;;;;;0.77;0.30;;;11.10;99.90;;;;;;5072231;28;20032;-38
2023/11/11 06:07:15;;;;;;;0.55;0.38;;;11.10;99.90;;;;;;5072449;28;20032;-38
2023/11/11 06:09:40;;;;;;;0.55;0.25;;;11.10;99.90;;;;;;5072010;28;20063;-38
2023/11/11 06:12:06;;;;;;;0.50;0.20;;;11.20;99.90;;;;;;5072061;28;20063;-38
2023/11/11 06:14:32;;;;;;;0.98;0.40;;;11.20;99.90;;;;;;5072285;28;20017;-38
2023/11/11 06:16:58;;;;;;;1.02;0.30;;;11.10;99.90;;;;;;5070584;28;20029;-38
2023/11/11 06:19:25;;;;;;;0.35;0.20;;;11.10;99.90;;;;;;5071912;28;20029;-39
2023/11/11 06:21:52;;;;;;;0.80;0.30;;;11.10;99.90;;;;;;5071821;28;20378;-39
2023/11/11 06:24:17;;;;;;;1.05;0.45;;;11.10;99.90;;;;;;5071871;28;20100;-39
2023/11/11 06:26:43;;;;;;;1.05;0.30;;;11.10;99.90;;;;;;5071624;28;20107;-38
2023/11/11 06:29:09;;;;;;;0.93;0.35;;;11.10;99.90;;;;;;5072044;28;20471;-38
2023/11/11 06:31:35;;;;;;;1.90;0.40;;;11.10;99.90;;;;;;5071531;28;20082;-38
2023/11/11 06:34:01;;;;;;;0.90;0.30;;;11.10;99.90;;;;;;5071629;28;20099;-39
2023/11/11 06:36:27;;;;;;;0.30;0.20;;;11.10;99.90;;;;;;5071583;28;20128;-38
2023/11/11 06:38:52;;;;;;;0.93;0.25;;;11.10;99.90;;;;;;5071795;28;20055;-38
2023/11/11 06:41:20;;;;;;;0.55;0.40;;;11.10;99.90;;;;;;5071639;28;20028;-39
2023/11/11 06:43:46;;;;;;;1.15;0.30;;;11.10;99.90;;;;;;5071654;28;20396;-39
2023/11/11 06:46:13;;;;;;;0.52;0.20;;;11.10;99.90;;;;;;5071947;28;20071;-38
2023/11/11 06:48:38;;;;;;;0.65;0.40;;;11.10;99.90;;;;;;5071404;28;20067;-38
2023/11/11 06:51:04;;;;;;;0.22;0.20;;;11.20;99.90;;;;;;5071334;28;20028;-39
2023/11/11 06:53:30;;;;;;;1.23;0.50;;;11.10;99.90;;;;;;5071489;28;20028;-39
2023/11/11 06:55:56;;;;;;;0.73;0.30;;;11.10;99.90;;;;;;5071541;28;20100;-38
2023/11/11 06:58:22;;;;;;;1.98;0.25;;;11.10;99.90;;;;;;5071186;28;20017;-38
2023/11/11 07:00:47;;;;;;;0.77;0.40;;;11.10;99.90;;;;;;5071490;28;20040;-38
2023/11/11 07:03:13;;;;;;;0.70;0.43;;;11.10;99.90;;;;;;5071342;28;20025;-38
2023/11/11 07:05:39;;;;;;;0.88;0.30;;;11.10;99.90;;;;;;5071261;28;20363;-39
2023/11/11 07:08:05;;;;;;;0.20;0.20;;;11.10;99.90;;;;;;5071245;28;20036;-39
2023/11/11 07:10:33;;;;;;;0.40;0.30;;;11.10;99.90;;;;;;5071073;28;20470;-39
2023/11/11 07:13:02;;;;;;;0.30;0.25;;;11.10;99.90;;;;;;5075433;28;20032;-38
2023/11/11 07:15:28;;;;;;;0.85;0.40;;;11.10;99.90;;;;;;5075313;28;20099;-38
2023/11/11 07:17:54;;;;;;;0.80;0.43;;;11.10;99.90;;;;;;5075277;28;20147;-38
2023/11/11 07:20:21;;;;;;;0.65;0.28;;;11.10;99.90;;;;;;5075579;28;20343;-38
2023/11/11 07:22:51;;;;;;;0.38;0.20;;;11.10;99.90;;;;;;5075378;28;20020;-39
2023/11/11 07:25:18;;;;;;;0.73;0.30;;;11.10;99.90;;;;;;5075197;28;20035;-39
2023/11/11 07:27:43;;;;;;;0.95;0.20;;;11.10;99.90;;;;;;5075137;28;20456;-38
2023/11/11 07:30:10;;;;;;;0.43;0.30;;;11.10;99.90;;;;;;5075096;28;20058;-39
2023/11/11 07:32:40;;;;;;;0.68;0.43;;;11.10;99.90;;;;;;5073919;28;20016;-37
2023/11/11 07:35:10;;;;;;;0.50;0.30;;;11.10;99.90;;;;;;5073841;28;20032;-38
2023/11/11 07:37:37;;;;;;;0.80;0.43;;;11.10;99.90;;;;;;5073627;28;20024;-38
2023/11/11 07:40:05;;;;;;;1.15;0.60;;;11.10;99.90;;;;;;5075521;28;20090;-38
2023/11/11 07:42:30;;;;;;;0.47;0.30;;;11.10;99.90;;;;;;5075258;28;20037;-38
2023/11/11 07:44:56;;;;;;;0.52;0.38;;;11.10;99.90;;;;;;5075005;28;20080;-38
2023/11/11 07:47:22;;;;;;;1.10;0.43;;;11.10;99.90;;;;;;5074757;28;20021;-39
2023/11/11 07:49:47;;;;;;;0.95;0.50;;;11.10;99.90;;;;;;5074675;28;20135;-40
2023/11/11 07:52:13;;;;;;;1.25;0.60;;;11.10;99.90;;;;;;5074821;28;20074;-38
2023/11/11 07:54:39;;;;;;;1.08;0.60;;;11.20;99.90;;;;;;5074808;28;20257;-38
2023/11/11 07:57:07;;;;;;;1.33;0.65;;;11.10;99.90;;;;;;5074603;28;20497;-38
2023/11/11 07:59:38;;;;;;;3.40;0.90;;;11.10;99.90;;;;;;5074926;28;20447;-38
2023/11/11 08:02:05;;;;;;;1.20;0.70;;;11.10;99.90;;;;;;5074422;28;20052;-38
2023/11/11 08:04:31;;;;;;;0.88;0.70;;;11.10;99.90;;;;;;5074245;28;20032;-38
2023/11/11 08:06:57;;;;;;;1.17;0.80;;;11.10;99.90;;;;;;5074112;28;20028;-39
2023/11/11 08:09:23;;;;;;;1.60;0.90;;;11.10;99.90;;;;;;5074123;28;20024;-42
2023/11/11 08:11:49;;;;;;;2.40;1.02;;;11.10;99.90;;;;;;5074100;28;20024;-39
2023/11/11 08:14:15;;;;;;;0.98;0.73;;;11.10;99.90;;;;;;5074010;28;20092;-39
2023/11/11 08:16:40;;;;;;;2.35;0.70;;;11.10;99.90;;;;;;5074156;28;20020;-39
2023/11/11 08:19:07;;;;;;;1.50;0.77;;;11.20;99.90;;;;;;5073978;28;20395;-39
2023/11/11 08:21:34;;;;;;;1.10;0.70;;;11.10;99.90;;;;;;5073875;28;20430;-37
2023/11/11 08:24:01;;;;;;;3.05;0.90;;;11.20;99.90;;;;;;5073930;28;20430;-38
2023/11/11 08:26:27;;;;;;;1.45;0.65;;;11.10;99.90;;;;;;5073830;28;20035;-38
2023/11/11 08:28:53;;;;;;;2.30;0.85;;;11.10;99.90;;;;;;5073689;28;20058;-40
2023/11/11 08:31:18;;;;;;;0.90;0.60;;;11.10;99.90;;;;;;5073737;28;20020;-39
2023/11/11 08:33:44;;;;;;;2.05;0.80;;;11.10;99.90;;;;;;5073874;28;20081;-39
2023/11/11 08:36:10;;;;;;;1.35;0.60;;;11.20;99.90;;;;;;5073677;28;20093;-38
2023/11/11 08:38:36;;;;;;;1.23;0.73;;;11.10;99.90;;;;;;5073617;28;20032;-39
2023/11/11 08:41:02;;;;;;;1.52;0.90;;;11.20;99.90;;;;;;5073691;28;20025;-39
2023/11/11 08:43:28;;;;;;;0.80;0.50;;;11.10;99.90;;;;;;5073564;28;20027;-39
2023/11/11 08:45:55;;;;;;;1.00;0.70;;;11.20;99.90;;;;;;5073546;28;20025;-39
2023/11/11 08:48:21;;;;;;;1.25;0.70;;;11.10;99.90;;;;;;5073547;28;20021;-40
2023/11/11 08:50:47;;;;;;;1.45;0.70;;;11.10;99.90;;;;;;5073733;28;20040;-40
2023/11/11 08:53:13;;;;;;;1.20;0.63;;;11.10;99.90;;;;;;5073454;28;20069;-39
2023/11/11 08:55:38;;;;;;;1.00;0.60;;;11.10;99.90;;;;;;5073377;28;20081;-38
2023/11/11 08:58:05;;;;;;;1.40;0.88;;;11.10;99.90;;;;;;5073257;28;20478;-39
2023/11/11 09:00:32;;;;;;;1.50;0.90;;;11.20;99.90;;;;;;5073191;28;20032;-38
2023/11/11 09:02:58;;;;;;;0.65;0.45;;;11.10;99.90;;;;;;5073252;28;20512;-40
2023/11/11 09:05:24;;;;;;;1.60;0.65;;;11.20;99.90;;;;;;5073190;28;20036;-39
2023/11/11 09:07:50;;;;;;;0.65;0.63;;;11.10;99.90;;;;;;5073199;28;20026;-38
2023/11/11 09:10:16;;;;;;;1.35;0.70;;;11.10;99.90;;;;;;5072975;28;20029;-40
2023/11/11 09:12:41;;;;;;;0.90;0.70;;;11.10;99.90;;;;;;5073014;28;20103;-38
2023/11/11 09:15:08;;;;;;;1.00;0.70;;;11.20;99.90;;;;;;5072850;28;20366;-39
2023/11/11 09:17:35;;;;;;;1.58;0.80;;;11.20;99.90;;;;;;5072887;28;20533;-39
2023/11/11 09:20:01;;;;;;;1.13;0.55;;;11.20;99.90;;;;;;5072945;28;20052;-39
2023/11/11 09:22:27;;;;;;;1.73;0.60;;;11.10;99.90;;;;;;5072881;28;20494;-38
2023/11/11 09:24:52;;;;;;;1.05;0.60;;;11.20;99.90;;;;;;5072724;28;20017;-39
2023/11/11 09:27:18;;;;;;;0.70;0.50;;;11.20;99.90;;;;;;5072598;28;20493;-38
2023/11/11 09:29:44;;;;;;;1.02;0.68;;;11.20;99.90;;;;;;5072617;28;20022;-40
2023/11/11 09:32:11;;;;;;;1.25;0.70;;;11.20;99.90;;;;;;5072583;28;20387;-39
2023/11/11 09:34:41;;;;;;;1.13;0.70;;;11.20;99.90;;;;;;5072005;28;20021;-39
2023/11/11 09:37:07;;;;;;;0.90;0.60;;;11.20;99.90;;;;;;5072457;28;20524;-39
2023/11/11 09:39:33;;;;;;;1.08;0.60;;;11.20;99.90;;;;;;5072390;28;20029;-38
2023/11/11 09:41:59;;;;;;;2.33;0.63;;;11.20;99.90;;;;;;5072533;28;20028;-37
2023/11/11 09:44:25;;;;;;;1.17;0.55;;;11.20;99.90;;;;;;5072430;28;20482;-40
2023/11/11 09:46:54;;;;;;;1.13;0.60;;;11.30;99.90;;;;;;5072300;28;20024;-41
2023/11/11 09:49:20;;;;;;;0.80;0.57;;;11.30;99.90;;;;;;5072487;28;20055;-41
2023/11/11 09:51:47;;;;;;;0.73;0.60;;;11.30;99.90;;;;;;5072668;28;20029;-39
2023/11/11 09:54:13;;;;;;;0.98;0.50;;;11.30;99.90;;;;;;5072037;28;20025;-39
2023/11/11 09:56:43;;;;;;;1.35;0.73;;;11.30;99.90;;;;;;5072091;28;20027;-39
2023/11/11 09:59:12;;;;;;;1.00;0.47;;;11.30;99.90;;;;;;5072121;28;20050;-39
2023/11/11 10:01:39;;;;;;;1.25;0.50;;;11.40;99.90;;;;;;5072176;28;20111;-38
2023/11/11 10:04:04;;;;;;;1.17;0.70;;;11.40;99.90;;;;;;5072141;28;20099;-38
2023/11/11 10:06:31;;;;;;;0.82;0.52;;;11.40;99.90;;;;;;5072356;28;20173;-39
2023/11/11 10:08:56;;;;;;;1.15;0.63;;;11.40;99.90;;;;;;5071899;28;20035;-39
2023/11/11 10:11:23;;;;;;;1.08;0.57;;;11.50;99.90;;;;;;5071819;28;20111;-39
2023/11/11 10:13:53;;;;;;;1.10;0.80;;;11.50;99.90;;;;;;5071943;28;20390;-39
2023/11/11 10:16:21;;;;;;;1.73;0.63;;;11.50;99.90;;;;;;5071770;28;20512;-39
2023/11/11 10:18:49;;;;;;;1.90;0.88;;;11.50;99.90;;;;;;5071651;28;20100;-39
2023/11/11 10:21:16;;;;;;;0.95;0.60;;;11.50;99.90;;;;;;5071644;28;20035;-40
2023/11/11 10:23:45;;;;;;;2.22;1.02;;;11.50;99.90;;;;;;5072102;28;20043;-39
2023/11/11 10:26:11;;;;;;;2.55;1.00;;;11.50;99.90;;;;;;5071813;28;20032;-37
2023/11/11 10:28:37;;;;;;;3.20;1.42;;;11.30;99.90;;;;;;5071766;28;20024;-38
2023/11/11 10:31:07;;;;;;;2.17;1.02;;;11.30;99.90;;;;;;5071508;28;20077;-39
2023/11/11 10:33:34;;;;;;;1.70;1.20;;;11.30;99.90;;;;;;5072167;28;20100;-38
2023/11/11 10:36:01;;;;;;;2.00;0.98;;;11.40;99.90;;;;;;5071757;28;20082;-37
2023/11/11 10:38:27;;;;;;;1.67;1.13;;;11.50;99.90;;;;;;5071465;28;20029;-37
2023/11/11 10:40:53;;;;;;;2.22;1.17;;;11.70;99.90;;;;;;5071578;28;20016;-37
2023/11/11 10:43:19;;;;;;;2.33;1.25;;;11.90;99.90;;;;;;5071579;28;20032;-37
2023/11/11 10:45:47;;;;;;;3.55;1.15;;;12.00;99.90;;;;;;5071799;28;20037;-38
2023/11/11 10:48:14;;;;;;;2.40;0.90;;;12.10;99.90;;;;;;5071287;28;20024;-38
2023/11/11 10:50:40;;;;;;;2.65;1.02;;;12.20;99.90;;;;;;5071964;28;20036;-38
2023/11/11 10:53:07;;;;;;;1.65;1.02;;;12.20;99.90;;;;;;5071609;28;20095;-42
2023/11/11 10:55:33;;;;;;;3.10;1.10;;;12.20;99.90;;;;;;5071410;28;20020;-38
2023/11/11 10:58:00;;;;;;;2.03;1.02;;;12.20;99.90;;;;;;5071301;28;20109;-38
2023/11/11 11:00:26;;;;;;;1.95;1.00;;;12.20;99.90;;;;;;5071493;28;20054;-37
2023/11/11 11:02:55;;;;;;;2.22;0.98;;;12.20;99.90;;;;;;5070030;28;20020;-37
2023/11/11 11:05:45;;;;;;;2.63;1.00;;;12.20;99.90;;;;;;5071508;28;20048;-38
2023/11/11 11:08:30;;;;;;;3.13;1.10;;;12.10;99.90;;;;;;5071330;28;20085;-37
2023/11/11 11:11:16;;;;;;;3.65;1.00;;;12.00;99.90;;;;;;5071410;28;20039;-38
2023/11/11 11:13:43;;;;;;;9.80;1.60;;;11.90;99.90;;;;;;5071383;28;20486;-38
2023/11/11 11:16:16;;;;;;;7.13;1.45;;;11.90;99.90;;;;;;5071554;28;20339;-39
2023/11/11 11:18:41;;;;;;;7.18;1.27;;;11.60;99.90;;;;;;5071264;28;20024;-38
2023/11/11 11:21:08;;;;;;;3.25;1.10;;;11.50;99.90;;;;;;5071225;28;20512;-38
2023/11/11 11:23:37;;;;;;;7.75;1.40;;;11.40;99.90;;;;;;5071442;28;20025;-38
2023/11/11 11:26:03;;;;;;;2.45;1.27;;;11.40;99.90;;;;;;5071031;28;20082;-39
2023/11/11 11:28:29;;;;;;;9.00;1.48;;;11.40;99.90;;;;;;5071167;28;20478;-42
2023/11/11 11:30:58;;;;;;;2.53;1.27;;;11.40;99.90;;;;;;5071364;28;20440;-41
2023/11/11 11:33:29;;;;;;;3.03;1.17;;;11.50;99.90;;;;;;5071188;28;20502;-38
2023/11/11 11:35:58;;;;;;;5.30;1.20;;;11.60;99.90;;;;;;5071167;28;20474;-38
2023/11/11 11:38:29;;;;;;;2.75;1.00;;;11.60;99.90;;;;;;5070962;28;20021;-38
2023/11/11 11:41:06;;;;;;;2.60;0.90;;;11.70;99.90;;;;;;5070987;28;20581;-38
2023/11/11 11:43:34;;;;;;;4.47;1.10;;;11.80;99.90;;;;;;5071207;28;20056;-38
2023/11/11 11:46:01;;;;;;;4.68;0.98;;;11.90;99.90;;;;;;5070698;28;20056;-37
2023/11/11 11:48:35;;;;;;;2.53;1.02;;;11.90;99.90;;;;;;5070983;28;20020;-37
2023/11/11 11:51:04;;;;;;;3.22;1.20;;;11.90;99.90;;;;;;5070893;28;20020;-38
2023/11/11 11:53:30;;;;;;;3.47;1.38;;;12.00;99.90;;;;;;5071006;28;20024;-38
2023/11/11 11:55:56;;;;;;;1.20;0.93;;;12.00;99.90;;;;;;5071098;28;20025;-37
2023/11/11 11:58:22;;;;;;;5.25;0.88;;;12.00;99.90;;;;;;5073452;28;20016;-37
2023/11/11 12:00:47;;;;;;;3.33;0.98;;;12.00;99.90;;;;;;5074568;28;20036;-39
2023/11/11 12:03:14;;;;;;;2.20;0.80;;;12.00;99.90;;;;;;5074632;28;20103;-37
2023/11/11 12:05:40;;;;;;;1.35;0.80;;;12.00;99.90;;;;;;5074497;28;20043;-38
2023/11/11 12:08:05;;;;;;;2.78;0.90;;;12.10;99.90;;;;;;5074389;28;20393;-38
2023/11/11 12:10:47;;;;;;;3.20;0.80;;;12.00;99.90;;;;;;5074549;28;20028;-39
2023/11/11 12:13:13;;;;;;;1.70;0.90;;;12.10;99.90;;;;;;5074262;28;20020;-40
2023/11/11 12:15:49;;;;;;;1.65;0.88;;;12.10;99.90;;;;;;5074251;28;20020;-39
2023/11/11 12:18:15;;;;;;;2.08;0.80;;;12.10;99.90;;;;;;5074391;28;20330;-38
2023/11/11 12:20:45;;;;;;;2.25;0.93;;;12.00;99.90;;;;;;5074113;28;20081;-39
2023/11/11 12:23:11;;;;;;;2.38;0.88;;;12.00;99.90;;;;;;5074344;28;20025;-39
2023/11/11 12:25:39;;;;;;;4.68;0.90;;;12.10;99.90;;;;;;5074096;28;20103;-38
2023/11/11 12:28:06;;;;;;;2.90;0.70;;;12.00;99.90;;;;;;5074168;28;20055;-38
2023/11/11 12:30:32;;;;;;;4.28;0.73;;;12.00;99.90;;;;;;5073813;28;20031;-39
2023/11/11 12:33:08;;;;;;;1.63;0.70;;;12.00;99.90;;;;;;5074099;28;20017;-38
2023/11/11 12:35:35;;;;;;;1.75;0.70;;;12.00;99.90;;;;;;5073892;28;20544;-38
2023/11/11 12:38:21;;;;;;;2.70;0.90;;;12.00;99.90;;;;;;5074129;28;20029;-38
2023/11/11 12:40:47;;;;;;;3.20;0.80;;;12.00;99.90;;;;;;5073738;28;20051;-40
2023/11/11 12:43:15;;;;;;;2.38;0.95;;;12.00;99.90;;;;;;5073947;28;20108;-38
2023/11/11 12:45:49;;;;;;;2.55;0.60;;;12.00;99.90;;;;;;5073873;28;20036;-38